PN04 weather

Strittmatter Airport
Ebensburg, Pennsylvania, United States

Public forecast

Using degrees Fahrenheit for public forecast. Weather courtesy of forecast.io.

Closest aviation weather report (METAR) to Strittmatter Airport

Closest report is John Murtha Johnstown Cambria County Airport, 15.3 nm (28.2 km) SSW. Retrieved 2019/11/14 02:54 UTC (14 minutes ago):

KJST 140254Z AUTO 18010KT 10SM CLR M04/M13 A3019 RMK AO2 SLP260 T10441128 56008

Closest aviation forecast (TAF) to Strittmatter Airport

Closest forecast is John Murtha Johnstown Cambria County Airport, 15.3 nm (28.2 km) SSW. Retrieved 2019-11-14 00:36 UTC (3 hours ago):

TAF KJST 132333Z 1400/1424 00000KT P6SM SCT250 FM141500 21010G17KT P6SM BKN250